createdAt,value
2024-02-23T00:00:05.193Z,5.63
2024-02-23T00:10:04.786Z,5.83
2024-02-23T00:20:05.413Z,5.92
2024-02-23T00:30:05.644Z,6.06
2024-02-23T00:40:05.422Z,6.13
2024-02-23T00:50:05.614Z,6.06
2024-02-23T01:00:05.587Z,5.89
2024-02-23T01:10:05.830Z,5.85
2024-02-23T01:20:05.857Z,5.98
2024-02-23T01:30:05.984Z,6.00
2024-02-23T01:40:06.121Z,5.95
2024-02-23T01:50:06.356Z,5.89
2024-02-23T02:00:06.635Z,5.83
2024-02-23T02:10:06.611Z,5.95
2024-02-23T02:20:07.304Z,5.91
2024-02-23T02:30:11.753Z,5.95
2024-02-23T02:40:07.762Z,6.01
2024-02-23T02:50:07.531Z,6.00
2024-02-23T03:00:07.995Z,6.13
2024-02-23T03:10:07.945Z,6.10
2024-02-23T03:20:07.985Z,6.04
2024-02-23T03:30:08.196Z,5.98
2024-02-23T03:40:08.209Z,5.91
2024-02-23T03:50:08.457Z,5.88
2024-02-23T04:00:08.557Z,5.75
2024-02-23T04:10:08.691Z,5.68
2024-02-23T04:20:09.066Z,5.66
2024-02-23T04:30:09.239Z,5.56
2024-02-23T04:40:09.144Z,5.45
2024-02-23T04:50:09.506Z,5.37
2024-02-23T05:00:10.720Z,5.22
2024-02-23T05:10:09.753Z,5.09
2024-02-23T05:20:10.079Z,5.05
2024-02-23T05:30:10.053Z,5.05
2024-02-23T05:40:10.332Z,5.12
2024-02-23T05:50:10.616Z,5.12
2024-02-23T06:00:12.311Z,5.10
2024-02-23T06:10:10.792Z,5.17
2024-02-23T06:20:11.197Z,5.10
2024-02-23T06:30:11.379Z,5.17
2024-02-23T06:40:11.359Z,5.14
2024-02-23T06:50:11.684Z,5.07
2024-02-23T07:00:11.911Z,4.99
2024-02-23T07:10:11.852Z,5.05
2024-02-23T07:20:12.024Z,5.43
2024-02-23T07:30:12.174Z,5.63
2024-02-23T07:40:12.403Z,5.88
2024-02-23T07:50:12.677Z,5.92
2024-02-23T08:00:12.978Z,6.16
2024-02-23T08:10:12.901Z,6.26
2024-02-23T08:20:13.383Z,6.41
2024-02-23T08:30:13.477Z,6.29
2024-02-23T08:40:13.462Z,6.32
2024-02-23T08:50:13.752Z,6.48
2024-02-23T09:00:17.228Z,6.61
2024-02-23T09:10:13.976Z,6.86
2024-02-23T09:20:14.325Z,6.91
2024-02-23T09:30:14.607Z,7.08
2024-02-23T09:40:14.815Z,7.27
2024-02-23T09:50:14.807Z,7.12
2024-02-23T10:00:14.769Z,7.42
2024-02-23T10:10:15.003Z,7.75
2024-02-23T10:20:15.364Z,7.67
2024-02-23T10:30:15.888Z,7.50
2024-02-23T10:40:15.569Z,7.81
2024-02-23T10:50:15.895Z,7.72
2024-02-23T11:00:15.824Z,7.93
2024-02-23T11:10:16.069Z,7.59
2024-02-23T11:20:16.361Z,7.78
2024-02-23T11:30:17.233Z,7.81
2024-02-23T11:40:16.335Z,7.78
2024-02-23T11:50:16.581Z,7.69
2024-02-23T12:00:16.874Z,7.90
2024-02-23T12:10:17.119Z,8.03
2024-02-23T12:20:17.211Z,8.10
2024-02-23T12:30:17.465Z,8.47
2024-02-23T12:40:17.357Z,8.53
2024-02-23T12:50:17.972Z,8.45
2024-02-23T13:00:17.921Z,8.48
2024-02-23T13:10:18.171Z,8.71
2024-02-23T13:20:18.196Z,8.57
2024-02-23T13:30:18.518Z,8.73
2024-02-23T13:40:18.736Z,8.96
2024-02-23T13:50:18.682Z,8.99
2024-02-23T14:00:18.971Z,8.63
2024-02-23T14:10:19.226Z,8.35
2024-02-23T14:20:19.306Z,8.32
2024-02-23T14:30:20.402Z,8.29
2024-02-23T14:40:19.467Z,8.44
2024-02-23T14:50:19.922Z,8.97
2024-02-23T15:00:19.726Z,8.84
2024-02-23T15:10:19.979Z,9.81
2024-02-23T15:20:20.433Z,9.56
2024-02-23T15:30:20.224Z,8.81
2024-02-23T15:40:20.533Z,9.01
2024-02-23T15:50:34.937Z,8.69
2024-02-23T16:00:21.697Z,8.26
2024-02-23T16:10:21.030Z,8.12
2024-02-23T16:20:21.051Z,7.81
2024-02-23T16:30:21.280Z,7.44
2024-02-23T16:40:21.293Z,7.24
2024-02-23T16:50:21.579Z,6.90
2024-02-23T17:00:21.832Z,6.86
2024-02-23T17:10:21.704Z,6.59
2024-02-23T17:20:22.150Z,6.66
2024-02-23T17:30:22.347Z,6.80
2024-02-23T17:40:23.556Z,6.77
2024-02-23T17:50:23.636Z,6.73
2024-02-23T18:00:22.916Z,6.59
2024-02-23T18:10:22.862Z,6.53
2024-02-23T18:20:23.150Z,6.35
2024-02-23T18:30:23.384Z,6.41
2024-02-23T18:40:23.686Z,6.58
2024-02-23T18:50:23.800Z,6.56
2024-02-23T19:00:23.946Z,6.29
2024-02-23T19:10:24.207Z,6.00
2024-02-23T19:20:24.254Z,6.16
2024-02-23T19:30:24.437Z,6.35
2024-02-23T19:40:24.764Z,6.21
2024-02-23T19:50:24.735Z,6.03
2024-02-23T20:00:25.003Z,6.30
2024-02-23T20:10:25.255Z,6.29
2024-02-23T20:20:25.292Z,5.98
2024-02-23T20:30:25.497Z,6.22
2024-02-23T20:40:25.802Z,6.22
2024-02-23T20:50:26.162Z,6.10
2024-02-23T21:00:26.047Z,6.14
2024-02-23T21:10:26.310Z,5.82
2024-02-23T21:20:26.349Z,5.95
2024-02-23T21:30:26.547Z,5.95
2024-02-23T21:40:26.849Z,6.04
2024-02-23T21:50:26.867Z,5.96
2024-02-23T22:00:27.109Z,5.85
2024-02-23T22:10:27.365Z,5.88
2024-02-23T22:20:27.432Z,5.73
2024-02-23T22:30:27.929Z,5.81
2024-02-23T22:40:28.061Z,4.91
2024-02-23T22:50:27.894Z,3.52
2024-02-23T23:00:28.152Z,3.05
2024-02-23T23:10:28.125Z,3.30
2024-02-23T23:20:28.328Z,3.05
2024-02-23T23:30:28.358Z,5.23
2024-02-23T23:40:28.680Z,5.46
2024-02-23T23:50:29.178Z,5.48
